createdAt,value
2023-09-07T00:01:39.099Z,99.90
2023-09-07T00:04:07.935Z,99.90
2023-09-07T00:06:35.765Z,99.90
2023-09-07T00:09:06.608Z,99.90
2023-09-07T00:11:34.328Z,99.90
2023-09-07T00:14:01.318Z,99.90
2023-09-07T00:16:28.385Z,99.90
2023-09-07T00:18:55.551Z,99.90
2023-09-07T00:21:23.426Z,99.90
2023-09-07T00:23:50.316Z,99.90
2023-09-07T00:26:17.357Z,99.90
2023-09-07T00:28:44.817Z,99.90
2023-09-07T00:31:11.887Z,99.90
2023-09-07T00:33:39.132Z,99.90
2023-09-07T00:36:06.384Z,99.90
2023-09-07T00:38:33.637Z,99.90
2023-09-07T00:41:00.767Z,99.90
2023-09-07T00:43:27.825Z,99.90
2023-09-07T00:45:55.534Z,99.90
2023-09-07T00:48:23.244Z,99.90
2023-09-07T00:50:50.396Z,99.90
2023-09-07T00:53:17.995Z,99.90
2023-09-07T00:55:46.194Z,99.90
2023-09-07T00:58:13.729Z,99.90
2023-09-07T01:00:41.558Z,99.90
2023-09-07T01:03:10.217Z,99.90
2023-09-07T01:06:03.525Z,99.90
2023-09-07T01:08:40.054Z,99.90
2023-09-07T01:11:24.269Z,99.90
2023-09-07T01:13:54.996Z,99.90
2023-09-07T01:16:23.248Z,99.90
2023-09-07T01:18:50.722Z,99.90
2023-09-07T01:21:20.105Z,99.90
2023-09-07T01:23:48.853Z,99.90
2023-09-07T01:26:15.982Z,99.90
2023-09-07T01:28:43.151Z,99.90
2023-09-07T01:31:10.930Z,99.90
2023-09-07T01:33:38.386Z,99.90
2023-09-07T01:36:05.845Z,99.90
2023-09-07T01:38:33.117Z,99.90
2023-09-07T01:41:00.419Z,99.90
2023-09-07T01:43:27.517Z,99.90
2023-09-07T01:45:54.608Z,99.90
2023-09-07T01:48:21.672Z,99.90
2023-09-07T01:50:53.018Z,99.90
2023-09-07T01:53:20.284Z,99.90
2023-09-07T01:55:48.929Z,99.90
2023-09-07T01:58:16.047Z,99.90
2023-09-07T02:00:43.084Z,99.90
2023-09-07T02:03:11.651Z,99.90
2023-09-07T02:05:38.761Z,99.90
2023-09-07T02:08:06.232Z,99.90
2023-09-07T02:10:34.203Z,99.90
2023-09-07T02:13:01.146Z,99.90
2023-09-07T02:15:28.144Z,99.90
2023-09-07T02:17:55.051Z,99.90
2023-09-07T02:20:22.591Z,99.90
2023-09-07T02:22:49.598Z,99.90
2023-09-07T02:25:16.576Z,99.90
2023-09-07T02:27:43.872Z,99.90
2023-09-07T02:30:11.205Z,99.90
2023-09-07T02:32:38.220Z,99.90
2023-09-07T02:35:05.685Z,99.90
2023-09-07T02:37:32.828Z,99.90
2023-09-07T02:39:59.969Z,99.90
2023-09-07T02:42:27.209Z,99.90
2023-09-07T02:44:54.749Z,99.90
2023-09-07T02:47:22.724Z,99.90
2023-09-07T02:49:49.746Z,99.90
2023-09-07T02:52:17.405Z,99.90
2023-09-07T02:54:44.619Z,99.90
2023-09-07T02:57:13.628Z,99.90
2023-09-07T02:59:41.803Z,99.90
2023-09-07T03:02:08.876Z,99.90
2023-09-07T03:04:35.939Z,99.90
2023-09-07T03:07:03.532Z,99.90
2023-09-07T03:09:30.521Z,99.90
2023-09-07T03:11:57.619Z,99.90
2023-09-07T03:14:25.774Z,99.90
2023-09-07T03:16:53.464Z,99.90
2023-09-07T03:19:20.459Z,99.90
2023-09-07T03:21:47.548Z,99.90
2023-09-07T03:24:16.789Z,99.90
2023-09-07T03:26:45.045Z,99.90
2023-09-07T03:29:12.264Z,99.90
2023-09-07T03:31:39.403Z,99.90
2023-09-07T03:34:07.276Z,99.90
2023-09-07T03:36:34.448Z,99.90
2023-09-07T03:39:01.470Z,99.90
2023-09-07T03:41:31.918Z,99.90
2023-09-07T03:44:00.315Z,99.90
2023-09-07T03:46:28.246Z,99.90
2023-09-07T03:48:55.353Z,99.90
2023-09-07T03:51:22.417Z,99.90
2023-09-07T03:53:49.360Z,99.90
2023-09-07T03:56:16.563Z,99.90
2023-09-07T03:58:43.744Z,99.90
2023-09-07T04:01:10.796Z,99.90
2023-09-07T04:03:38.060Z,99.90
2023-09-07T04:06:05.915Z,99.90
2023-09-07T04:08:33.528Z,99.90
2023-09-07T04:11:05.258Z,99.90
2023-09-07T04:13:32.983Z,99.90
2023-09-07T04:16:00.546Z,99.90
2023-09-07T04:18:27.648Z,99.90
2023-09-07T04:20:54.646Z,99.90
2023-09-07T04:23:21.652Z,99.90
2023-09-07T04:25:49.213Z,99.90
2023-09-07T04:28:16.320Z,99.90
2023-09-07T04:30:43.615Z,99.90
2023-09-07T04:33:10.847Z,99.90
2023-09-07T04:35:39.315Z,99.90
2023-09-07T04:38:07.278Z,99.90
2023-09-07T04:40:34.564Z,99.90
2023-09-07T04:43:01.578Z,99.90
2023-09-07T04:45:28.650Z,99.90
2023-09-07T04:47:55.937Z,99.90
2023-09-07T04:50:23.037Z,99.90
2023-09-07T04:52:50.304Z,99.90
2023-09-07T04:55:17.665Z,99.90
2023-09-07T04:57:44.800Z,99.90
2023-09-07T05:00:12.443Z,99.90
2023-09-07T05:02:43.305Z,99.90
2023-09-07T05:05:10.778Z,99.90
2023-09-07T05:07:37.759Z,99.90
2023-09-07T05:10:05.436Z,99.90
2023-09-07T05:12:32.736Z,99.90
2023-09-07T05:15:00.974Z,99.90
2023-09-07T05:17:28.836Z,99.90
2023-09-07T05:19:55.833Z,99.90
2023-09-07T05:22:23.391Z,99.90
2023-09-07T05:24:50.857Z,99.90
2023-09-07T05:27:17.840Z,99.90
2023-09-07T05:29:45.492Z,99.90
2023-09-07T05:32:14.172Z,99.90
2023-09-07T05:34:41.282Z,99.90
2023-09-07T05:37:09.050Z,99.90
2023-09-07T05:39:36.147Z,99.90
2023-09-07T05:42:03.231Z,99.90
2023-09-07T05:44:30.285Z,99.90
2023-09-07T05:46:59.984Z,99.90
2023-09-07T05:49:29.128Z,99.90
2023-09-07T05:51:56.376Z,99.90
2023-09-07T05:54:24.857Z,99.90
2023-09-07T05:56:51.885Z,99.90
2023-09-07T05:59:19.752Z,99.90
2023-09-07T06:01:46.809Z,99.90
2023-09-07T06:04:14.227Z,99.90
2023-09-07T06:06:41.330Z,99.90
2023-09-07T06:09:08.360Z,99.90
2023-09-07T06:11:36.046Z,99.90
2023-09-07T06:14:04.300Z,99.90
2023-09-07T06:16:31.323Z,99.90
2023-09-07T06:18:58.484Z,99.90
2023-09-07T06:21:25.587Z,99.90
2023-09-07T06:23:53.147Z,99.90
2023-09-07T06:26:20.942Z,99.90
2023-09-07T06:28:48.154Z,99.90
2023-09-07T06:31:17.328Z,99.90
2023-09-07T06:33:46.128Z,99.90
2023-09-07T06:36:13.120Z,99.90
2023-09-07T06:38:40.064Z,99.90
2023-09-07T06:41:08.869Z,99.90
2023-09-07T06:43:37.354Z,99.90
2023-09-07T06:46:09.203Z,99.90
2023-09-07T06:48:36.911Z,99.90
2023-09-07T06:51:05.527Z,99.90
2023-09-07T06:53:49.106Z,99.90
2023-09-07T06:56:21.074Z,99.90
2023-09-07T06:58:49.088Z,99.90
2023-09-07T07:01:16.572Z,99.90
2023-09-07T07:03:43.870Z,99.90
2023-09-07T07:06:11.551Z,99.90
2023-09-07T07:08:38.963Z,99.90
2023-09-07T07:11:06.087Z,99.90
2023-09-07T07:13:33.239Z,99.90
2023-09-07T07:16:00.236Z,99.90
2023-09-07T07:18:27.645Z,99.90
2023-09-07T07:20:54.693Z,99.90
2023-09-07T07:23:21.639Z,99.90
2023-09-07T07:25:48.674Z,99.90
2023-09-07T07:28:15.768Z,99.90
2023-09-07T07:30:43.123Z,99.90
2023-09-07T07:33:13.147Z,99.90
2023-09-07T07:35:40.690Z,99.90
2023-09-07T07:38:08.751Z,99.90
2023-09-07T07:40:37.750Z,99.90
2023-09-07T07:43:05.087Z,99.90
2023-09-07T07:45:33.221Z,99.90
2023-09-07T07:48:00.271Z,99.90
2023-09-07T07:50:27.249Z,99.90
2023-09-07T07:52:54.521Z,99.90
2023-09-07T07:55:21.693Z,99.90
2023-09-07T07:57:48.851Z,99.90
2023-09-07T08:00:16.393Z,99.90
2023-09-07T08:02:50.488Z,99.80
2023-09-07T08:05:18.319Z,99.60
2023-09-07T08:07:45.390Z,99.30
2023-09-07T08:10:13.013Z,99.30
2023-09-07T08:12:40.186Z,99.60
2023-09-07T08:15:07.375Z,99.00
2023-09-07T08:17:35.221Z,98.30
2023-09-07T08:20:02.658Z,98.20
2023-09-07T08:22:30.108Z,97.70
2023-09-07T08:25:00.174Z,98.20
2023-09-07T08:27:27.126Z,97.70
2023-09-07T08:29:56.142Z,97.70
2023-09-07T08:32:23.984Z,97.30
2023-09-07T08:34:51.866Z,97.30
2023-09-07T08:37:19.009Z,97.10
2023-09-07T08:39:45.999Z,96.80
2023-09-07T08:42:13.446Z,96.90
2023-09-07T08:44:43.646Z,97.30
2023-09-07T08:47:11.163Z,97.40
2023-09-07T08:49:38.478Z,97.00
2023-09-07T08:52:06.295Z,97.00
2023-09-07T08:54:34.223Z,95.90
2023-09-07T08:57:05.418Z,95.80
2023-09-07T08:59:32.444Z,95.60
2023-09-07T09:01:59.900Z,95.50
2023-09-07T09:04:29.598Z,95.40
2023-09-07T09:06:57.088Z,95.50
2023-09-07T09:09:28.389Z,95.50
2023-09-07T09:11:55.445Z,95.20
2023-09-07T09:14:25.086Z,95.10
2023-09-07T09:16:53.186Z,95.10
2023-09-07T09:19:20.658Z,94.90
2023-09-07T09:21:48.013Z,94.80
2023-09-07T09:24:16.566Z,94.90
2023-09-07T09:26:43.586Z,95.00
2023-09-07T09:29:12.336Z,94.90
2023-09-07T09:31:39.612Z,94.20
2023-09-07T09:34:07.597Z,93.90
2023-09-07T09:36:36.307Z,93.80
2023-09-07T09:39:04.349Z,94.00
2023-09-07T09:41:37.291Z,94.60
2023-09-07T09:44:05.098Z,94.60
2023-09-07T09:46:33.945Z,94.20
2023-09-07T09:49:01.847Z,93.70
2023-09-07T09:51:32.992Z,93.40
2023-09-07T09:54:01.788Z,93.30
2023-09-07T09:56:28.731Z,93.70
2023-09-07T09:58:55.653Z,93.70
2023-09-07T10:01:24.215Z,93.80
2023-09-07T10:03:54.381Z,93.80
2023-09-07T10:06:25.560Z,93.30
2023-09-07T10:09:07.897Z,93.40
2023-09-07T10:11:38.843Z,93.50
2023-09-07T10:14:07.652Z,92.80
2023-09-07T10:16:48.684Z,93.00
2023-09-07T10:19:24.020Z,92.40
2023-09-07T10:21:55.182Z,92.10
2023-09-07T10:24:37.059Z,92.00
2023-09-07T10:27:09.501Z,92.00
2023-09-07T10:29:44.551Z,92.10
2023-09-07T10:32:14.363Z,92.60
2023-09-07T10:34:45.546Z,92.60
2023-09-07T10:37:16.970Z,92.90
2023-09-07T10:39:45.782Z,92.90
2023-09-07T10:42:23.700Z,92.90
2023-09-07T10:44:50.875Z,92.50
2023-09-07T10:47:18.062Z,92.60
2023-09-07T10:49:45.120Z,91.80
2023-09-07T10:52:12.170Z,92.50
2023-09-07T10:54:39.047Z,91.50
2023-09-07T10:57:10.440Z,91.20
2023-09-07T10:59:37.561Z,91.10
2023-09-07T11:02:06.281Z,91.00
2023-09-07T11:04:34.136Z,92.00
2023-09-07T11:07:01.948Z,91.20
2023-09-07T11:09:30.799Z,91.10
2023-09-07T11:11:57.937Z,91.50
2023-09-07T11:14:31.164Z,91.20
2023-09-07T11:16:58.462Z,91.20
2023-09-07T11:19:25.380Z,91.40
2023-09-07T11:21:55.234Z,91.00
2023-09-07T11:24:22.419Z,90.60
2023-09-07T11:26:49.504Z,90.90
2023-09-07T11:29:22.491Z,90.40
2023-09-07T11:31:49.530Z,90.10
2023-09-07T11:34:16.858Z,90.30
2023-09-07T11:36:47.384Z,90.00
2023-09-07T11:39:14.631Z,89.50
2023-09-07T11:41:45.483Z,89.10
2023-09-07T11:44:13.010Z,89.40
2023-09-07T11:46:40.910Z,89.30
2023-09-07T11:49:07.950Z,87.80
2023-09-07T11:51:34.956Z,87.70
2023-09-07T11:54:06.022Z,87.60
2023-09-07T11:56:33.389Z,87.20
2023-09-07T11:59:00.501Z,87.10
2023-09-07T12:01:28.567Z,87.10
2023-09-07T12:03:55.955Z,86.20
2023-09-07T12:06:24.676Z,86.50
2023-09-07T12:09:01.111Z,87.10
2023-09-07T12:11:28.337Z,88.10
2023-09-07T12:13:55.516Z,87.50
2023-09-07T12:16:22.919Z,87.30
2023-09-07T12:18:50.703Z,84.80
2023-09-07T12:21:17.638Z,84.90
2023-09-07T12:23:44.610Z,85.60
2023-09-07T12:26:11.655Z,85.60
2023-09-07T12:28:38.662Z,86.90
2023-09-07T12:31:06.143Z,85.90
2023-09-07T12:33:34.429Z,83.30
2023-09-07T12:36:02.059Z,84.90
2023-09-07T12:38:30.274Z,82.40
2023-09-07T12:40:57.529Z,83.00
2023-09-07T12:43:26.402Z,83.30
2023-09-07T12:45:54.085Z,82.70
2023-09-07T12:48:21.501Z,83.60
2023-09-07T12:50:48.461Z,82.00
2023-09-07T12:53:15.559Z,81.20
2023-09-07T12:55:42.837Z,79.20
2023-09-07T12:58:09.874Z,81.40
2023-09-07T13:00:36.885Z,81.70
2023-09-07T13:03:04.719Z,82.30
2023-09-07T13:05:31.700Z,81.90
2023-09-07T13:08:00.523Z,80.80
2023-09-07T13:10:27.547Z,80.70
2023-09-07T13:12:54.431Z,81.20
2023-09-07T13:15:21.366Z,82.30
2023-09-07T13:17:48.349Z,81.20
2023-09-07T13:20:15.491Z,81.00
2023-09-07T13:22:43.802Z,81.10
2023-09-07T13:25:11.129Z,81.30
2023-09-07T13:27:38.056Z,78.70
2023-09-07T13:30:06.902Z,80.20
2023-09-07T13:32:34.217Z,80.90
2023-09-07T13:35:01.481Z,80.20
2023-09-07T13:37:28.375Z,79.80
2023-09-07T13:39:55.504Z,79.80
2023-09-07T13:42:22.392Z,79.50
2023-09-07T13:44:50.755Z,79.60
2023-09-07T13:47:17.865Z,79.90
2023-09-07T13:49:44.745Z,79.20
2023-09-07T13:52:11.694Z,79.40
2023-09-07T13:54:38.739Z,79.30
2023-09-07T13:57:06.972Z,79.60
2023-09-07T13:59:35.803Z,79.70
2023-09-07T14:02:02.962Z,79.70
2023-09-07T14:04:32.085Z,77.90
2023-09-07T14:06:59.165Z,78.90
2023-09-07T14:09:26.180Z,79.00
2023-09-07T14:11:53.148Z,79.20
2023-09-07T14:14:20.200Z,80.00
2023-09-07T14:16:47.401Z,79.00
2023-09-07T14:19:14.515Z,80.00
2023-09-07T14:21:41.385Z,79.30
2023-09-07T14:24:08.457Z,79.40
2023-09-07T14:26:35.644Z,78.80
2023-09-07T14:29:02.623Z,79.30
2023-09-07T14:31:29.806Z,79.60
2023-09-07T14:33:56.858Z,80.10
2023-09-07T14:36:23.912Z,78.40
2023-09-07T14:38:50.963Z,79.90
2023-09-07T14:41:21.075Z,79.60
2023-09-07T14:43:49.248Z,79.10
2023-09-07T14:46:17.039Z,79.70
2023-09-07T14:48:45.772Z,81.50
2023-09-07T14:51:12.763Z,81.30
2023-09-07T14:53:39.813Z,81.40
2023-09-07T14:56:06.869Z,82.40
2023-09-07T14:58:34.305Z,82.10
2023-09-07T15:01:01.441Z,82.10
2023-09-07T15:03:28.455Z,80.90
2023-09-07T15:05:56.060Z,82.00
2023-09-07T15:08:23.374Z,82.20
2023-09-07T15:10:51.219Z,82.90
2023-09-07T15:13:18.522Z,83.30
2023-09-07T15:15:45.699Z,83.90
2023-09-07T15:18:12.878Z,83.90
2023-09-07T15:20:40.060Z,84.80
2023-09-07T15:23:07.245Z,84.90
2023-09-07T15:25:34.299Z,85.80
2023-09-07T15:28:01.374Z,84.90
2023-09-07T15:30:28.469Z,85.10
2023-09-07T15:32:55.668Z,85.50
2023-09-07T15:35:23.161Z,85.90
2023-09-07T15:37:50.350Z,85.90
2023-09-07T15:40:17.422Z,86.20
2023-09-07T15:42:44.563Z,86.10
2023-09-07T15:45:11.590Z,86.30
2023-09-07T15:47:38.805Z,86.80
2023-09-07T15:50:08.526Z,87.10
2023-09-07T15:52:47.377Z,87.50
2023-09-07T15:55:15.748Z,88.40
2023-09-07T15:57:44.789Z,88.00
2023-09-07T16:00:12.263Z,88.70
2023-09-07T16:02:42.323Z,89.30
2023-09-07T16:05:09.782Z,89.70
2023-09-07T16:07:36.747Z,89.80
2023-09-07T16:10:03.829Z,90.10
2023-09-07T16:12:30.859Z,90.30
2023-09-07T16:14:57.784Z,90.30
2023-09-07T16:17:24.767Z,90.50
2023-09-07T16:19:53.374Z,90.50
2023-09-07T16:22:20.500Z,90.60
2023-09-07T16:24:47.476Z,90.60
2023-09-07T16:27:14.519Z,90.60
2023-09-07T16:29:44.815Z,90.80
2023-09-07T16:32:13.621Z,90.70
2023-09-07T16:34:42.074Z,91.00
2023-09-07T16:37:09.618Z,91.20
2023-09-07T16:39:36.627Z,91.00
2023-09-07T16:42:04.194Z,91.20
2023-09-07T16:44:31.279Z,91.40
2023-09-07T16:46:58.237Z,91.50
2023-09-07T16:49:25.300Z,91.40
2023-09-07T16:51:52.354Z,91.40
2023-09-07T16:54:20.112Z,91.40
2023-09-07T16:56:47.161Z,91.40
2023-09-07T16:59:39.527Z,91.40
2023-09-07T17:02:01.066Z,91.40
2023-09-07T17:04:36.779Z,91.60
2023-09-07T17:07:08.005Z,91.80
2023-09-07T17:09:36.520Z,91.50
2023-09-07T17:12:04.097Z,91.60
2023-09-07T17:14:31.576Z,91.70
2023-09-07T17:16:58.647Z,92.30
2023-09-07T17:19:26.126Z,91.90
2023-09-07T17:21:53.436Z,92.20
2023-09-07T17:24:21.175Z,92.50
2023-09-07T17:26:48.489Z,92.90
2023-09-07T17:29:15.673Z,93.20
2023-09-07T17:31:43.003Z,93.20
2023-09-07T17:34:10.321Z,93.10
2023-09-07T17:36:37.381Z,93.40
2023-09-07T17:39:05.066Z,93.60
2023-09-07T17:41:34.242Z,93.80
2023-09-07T17:44:01.460Z,94.00
2023-09-07T17:46:29.128Z,94.10
2023-09-07T17:48:55.992Z,94.30
2023-09-07T17:51:22.954Z,94.50
2023-09-07T17:53:50.861Z,94.70
2023-09-07T17:56:18.109Z,95.00
2023-09-07T17:58:47.037Z,95.20
2023-09-07T18:01:16.215Z,95.50
2023-09-07T18:03:43.755Z,95.60
2023-09-07T18:06:11.326Z,95.90
2023-09-07T18:08:38.885Z,96.00
2023-09-07T18:11:07.076Z,96.10
2023-09-07T18:13:34.236Z,96.50
2023-09-07T18:16:01.254Z,96.70
2023-09-07T18:18:28.937Z,96.70
2023-09-07T18:20:56.120Z,96.60
2023-09-07T18:23:25.080Z,96.70
2023-09-07T18:25:52.978Z,96.80
2023-09-07T18:28:19.964Z,96.70
2023-09-07T18:30:47.247Z,96.90
2023-09-07T18:33:14.420Z,97.20
2023-09-07T18:35:41.436Z,97.50
2023-09-07T18:38:08.496Z,97.50
2023-09-07T18:40:35.743Z,97.60
2023-09-07T18:43:02.689Z,97.80
2023-09-07T18:45:29.689Z,97.70
2023-09-07T18:47:56.641Z,98.20
2023-09-07T18:50:24.972Z,98.20
2023-09-07T18:52:52.551Z,98.40
2023-09-07T18:55:19.963Z,98.50
2023-09-07T18:57:48.396Z,98.60
2023-09-07T19:00:16.678Z,98.70
2023-09-07T19:02:44.374Z,98.60
2023-09-07T19:05:11.677Z,98.90
2023-09-07T19:07:39.913Z,99.20
2023-09-07T19:10:07.377Z,99.40
2023-09-07T19:12:35.021Z,99.40
2023-09-07T19:15:03.008Z,99.30
2023-09-07T19:17:29.937Z,99.50
2023-09-07T19:19:58.150Z,99.60
2023-09-07T19:22:25.198Z,99.50
2023-09-07T19:24:53.249Z,99.60
2023-09-07T19:27:22.842Z,99.90
2023-09-07T19:29:51.936Z,99.90
2023-09-07T19:32:20.599Z,99.90
2023-09-07T19:34:47.885Z,99.90
2023-09-07T19:37:15.012Z,99.90
2023-09-07T19:39:42.164Z,99.90
2023-09-07T19:42:09.201Z,99.90
2023-09-07T19:44:36.451Z,99.90
2023-09-07T19:47:03.973Z,99.90
2023-09-07T19:49:30.929Z,99.90
2023-09-07T19:51:57.842Z,99.90
2023-09-07T19:54:24.864Z,99.90
2023-09-07T19:56:52.071Z,99.90
2023-09-07T19:59:19.231Z,99.90
2023-09-07T20:01:58.602Z,99.90
2023-09-07T20:04:26.929Z,99.90
2023-09-07T20:06:55.681Z,99.90
2023-09-07T20:09:23.211Z,99.90
2023-09-07T20:11:51.083Z,99.90
2023-09-07T20:14:18.793Z,99.90
2023-09-07T20:16:46.548Z,99.90
2023-09-07T20:19:14.224Z,99.90
2023-09-07T20:21:41.377Z,99.90
2023-09-07T20:24:09.702Z,99.90
2023-09-07T20:26:37.735Z,99.90
2023-09-07T20:29:09.217Z,99.90
2023-09-07T20:31:36.270Z,99.90
2023-09-07T20:34:03.333Z,99.90
2023-09-07T20:36:30.218Z,99.90
2023-09-07T20:38:57.153Z,99.90
2023-09-07T20:41:24.479Z,99.90
2023-09-07T20:43:51.718Z,99.90
2023-09-07T20:46:18.794Z,99.90
2023-09-07T20:48:45.842Z,99.90
2023-09-07T20:51:12.896Z,99.90
2023-09-07T20:53:39.928Z,99.90
2023-09-07T20:56:06.918Z,99.90
2023-09-07T20:58:35.020Z,99.90
2023-09-07T21:01:06.599Z,99.90
2023-09-07T21:03:34.048Z,99.90
2023-09-07T21:06:01.151Z,99.90
2023-09-07T21:08:28.262Z,99.90
2023-09-07T21:10:55.254Z,99.90
2023-09-07T21:13:22.275Z,99.90
2023-09-07T21:15:49.233Z,99.90
2023-09-07T21:18:16.393Z,99.90
2023-09-07T21:20:43.664Z,99.90
2023-09-07T21:23:12.144Z,99.90
2023-09-07T21:25:39.353Z,99.90
2023-09-07T21:28:07.791Z,99.90
2023-09-07T21:30:34.919Z,99.90
2023-09-07T21:33:02.414Z,99.90
2023-09-07T21:35:29.470Z,99.90
2023-09-07T21:37:56.778Z,99.90
2023-09-07T21:40:24.080Z,99.90
2023-09-07T21:42:51.171Z,99.90
2023-09-07T21:45:18.181Z,99.90
2023-09-07T21:47:45.292Z,99.90
2023-09-07T21:50:12.397Z,99.90
2023-09-07T21:52:39.648Z,99.90
2023-09-07T21:55:06.768Z,99.90
2023-09-07T21:57:33.712Z,99.90
2023-09-07T22:00:00.728Z,99.90
2023-09-07T22:02:27.837Z,99.90
2023-09-07T22:04:54.801Z,99.90
2023-09-07T22:07:21.913Z,99.90
2023-09-07T22:09:49.797Z,99.90
2023-09-07T22:12:16.848Z,99.90
2023-09-07T22:14:43.810Z,99.90
2023-09-07T22:17:12.719Z,99.90
2023-09-07T22:19:39.969Z,99.90
2023-09-07T22:22:07.100Z,99.90
2023-09-07T22:24:34.298Z,99.90
2023-09-07T22:27:01.402Z,99.90
2023-09-07T22:29:28.460Z,99.90
2023-09-07T22:31:55.392Z,99.90
2023-09-07T22:34:22.457Z,99.90
2023-09-07T22:36:49.527Z,99.90
2023-09-07T22:39:17.172Z,99.90
2023-09-07T22:41:44.207Z,99.90
2023-09-07T22:44:12.045Z,99.90
2023-09-07T22:46:39.126Z,99.90
2023-09-07T22:49:07.575Z,99.90
2023-09-07T22:51:35.452Z,99.90
2023-09-07T22:54:02.528Z,99.90
2023-09-07T22:56:29.871Z,99.90
2023-09-07T22:58:56.916Z,99.90
2023-09-07T23:01:23.958Z,99.90
2023-09-07T23:03:51.134Z,99.90
2023-09-07T23:06:18.487Z,99.90
2023-09-07T23:08:46.011Z,99.90
2023-09-07T23:11:12.976Z,99.90
2023-09-07T23:13:40.566Z,99.90
2023-09-07T23:16:09.305Z,99.90
2023-09-07T23:18:36.443Z,99.90
2023-09-07T23:21:03.799Z,99.90
2023-09-07T23:23:31.020Z,99.90
2023-09-07T23:25:58.038Z,99.90
2023-09-07T23:28:25.166Z,99.90
2023-09-07T23:30:52.764Z,99.90
2023-09-07T23:33:19.818Z,99.90
2023-09-07T23:35:46.897Z,99.90
2023-09-07T23:38:13.876Z,99.90
2023-09-07T23:40:40.805Z,99.90
2023-09-07T23:43:09.342Z,99.90
2023-09-07T23:45:36.520Z,99.90
2023-09-07T23:48:03.790Z,99.90
2023-09-07T23:50:30.833Z,99.90
2023-09-07T23:52:57.709Z,99.90
2023-09-07T23:55:24.665Z,99.90
2023-09-07T23:57:51.726Z,99.90
